Aérodrome :
LOGIN :

S'inscrire | Disclaimer

   EN    FR    IT 

 










Légende :    VFR   VFR Marginal   IFR   IFR Intensif   IFR Très Intensif
Visi : 
Plafond : 
>= 8 km
>= 3000ft
5 à 8 km
1000 à 3000 ft
1500m à 5 km
500 à 1000 ft
800 à 1500m
200 à 500 ft
< 800m
< 200 ft
Symboles :   Orages  Brouillard  Fortes neiges  Fortes précipitations  Vent > 20 kt
SIGMETs :   Divers  Orages  Givrage  Turbulence  Onde Orograph.  Cendres Volcan.






- Altitude de l'aérodrome : 364 ft
- Code IATA : FRA


EDDF - Frankfurt Int.

DERNIER METAR :
  • 050220Z VRB01KT 7000 -SNRA FEW013 BKN017 02/01 Q0993 RERA NOSIG

METARs EXPIRÉS :
  • 050150Z 10003KT 8000 RA FEW013 SCT017 OVC021 02/01 Q0993 BECMG NSW
  • 050120Z 10002KT 9999 -RA FEW013 BKN017 OVC023 02/01 Q0992 TEMPO BKN013
  • 050050Z 04002KT 9999 -SNRA FEW013 OVC017 03/M00 Q0992 TEMPO BKN013
  • 050020Z 03004KT 360V070 9999 -SNRA FEW013 OVC016 03/M00 Q0992 TEMPO BKN013
  • 042350Z 05005KT 9999 FEW013 OVC016 03/M00 Q0992 TEMPO BKN013

TAF TAF EDDF
Valide du 05 à 00h jusqu'au 06 à 06h UTC


042300Z 0500/0606 06004KT 9999 SCT013 BKN015
BECMG 0500/0503 BKN013
TEMPO 0501/0506 RA BKN008
PROB30
TEMPO 0501/0508 3000 -SNRA BKN004
BECMG 0505/0508 19005KT
BECMG 0510/0512 SCT020
BECMG 0513/0515 07005KT
BECMG 0522/0524 BKN030
PROB30
TEMPO 0603/0606 RA BKN014



MET'MAP, la Météo Aéronautique d'un coup d'oeil ! - Copyright ORBIFLY Décembre 2007 - Disclaimer

ORBIFLY MET'MAP TEAM :

Programmation & Développement : Alexandra Zaïnal
Sur une idée originale de : Baudouin d'Aumeries
Assistance à la programmation : Marc-Olivier Méhu
Soutien technique & logistique : Manuel Goepfert

Contact : metmap@orbifly.com




SOURCES & CREDITS :

   NOAA